Time;durP1;ratioP1;P1;durP2;ratioP2;P2;SDS_P1;SDS_P2;PMS_P1;PMS_P2;Temp;Humidity;BMP_temperature;BMP_pressure;BME280_temperature;BME280_humidity;BME280_pressure;Samples;Min_cycle;Max_cycle;Signal;HPM_P1;HPM_P2
2023/03/29 00:02:28;;;;;;;;;11.00;6.00;;;;;;;;6305154;22;45485;-82
2023/03/29 00:04:54;;;;;;;;;11.25;6.75;;;;;;;;6304884;22;46426;-83
2023/03/29 00:07:22;;;;;;;;;7.50;6.50;;;;;;;;6305439;22;45319;-82
2023/03/29 00:09:47;;;;;;;;;6.75;5.75;;;;;;;;6305309;22;45218;-82
2023/03/29 00:12:12;;;;;;;;;8.33;7.00;;;;;;;;6305408;22;45266;-81
2023/03/29 00:14:38;;;;;;;;;6.00;6.00;;;;;;;;6305037;22;45410;-82
2023/03/29 00:17:03;;;;;;;;;8.00;6.00;;;;;;;;6305487;22;45217;-82
2023/03/29 00:19:34;;;;;;;;;8.00;6.00;;;;;;;;6303875;22;45330;-82
2023/03/29 00:21:59;;;;;;;;;11.50;8.00;;;;;;;;6305119;22;45475;-82
2023/03/29 00:24:24;;;;;;;;;8.33;7.00;;;;;;;;6304804;22;46593;-82
2023/03/29 00:26:50;;;;;;;;;7.00;4.75;;;;;;;;6302738;22;45340;-82
2023/03/29 00:29:15;;;;;;;;;11.00;6.00;;;;;;;;6305325;22;45332;-82
2023/03/29 00:31:40;;;;;;;;;15.25;8.25;;;;;;;;6305077;22;45237;-81
2023/03/29 00:34:06;;;;;;;;;6.00;6.00;;;;;;;;6302864;22;46998;-83
2023/03/29 00:36:31;;;;;;;;;8.75;7.00;;;;;;;;6304752;22;45319;-82
2023/03/29 00:38:56;;;;;;;;;9.67;7.00;;;;;;;;6305119;22;45235;-83
2023/03/29 00:41:21;;;;;;;;;8.67;6.00;;;;;;;;6303041;22;45234;-82
2023/03/29 00:43:51;;;;;;;;;7.33;7.00;;;;;;;;6303270;22;48228;-82
2023/03/29 00:46:16;;;;;;;;;8.00;6.00;;;;;;;;6304698;22;45226;-82
2023/03/29 00:48:41;;;;;;;;;8.00;7.33;;;;;;;;6303817;22;45313;-82
2023/03/29 00:51:08;;;;;;;;;8.00;6.00;;;;;;;;6305404;22;45335;-82
2023/03/29 00:53:39;;;;;;;;;7.75;6.75;;;;;;;;6303214;22;48101;-82
2023/03/29 00:56:08;;;;;;;;;11.00;6.50;;;;;;;;6304393;22;45693;-82
2023/03/29 00:58:37;;;;;;;;;10.25;8.00;;;;;;;;6304920;22;45385;-83
2023/03/29 01:01:04;;;;;;;;;8.50;7.25;;;;;;;;6305576;22;45173;-82
2023/03/29 01:03:36;;;;;;;;;8.25;5.50;;;;;;;;6304911;22;45689;-82
2023/03/29 01:06:04;;;;;;;;;8.50;6.75;;;;;;;;6304883;22;45306;-83
2023/03/29 01:08:34;;;;;;;;;9.25;7.00;;;;;;;;6305597;22;45239;-82
2023/03/29 01:11:06;;;;;;;;;8.25;4.00;;;;;;;;6305150;22;45432;-82
2023/03/29 01:13:38;;;;;;;;;9.00;7.00;;;;;;;;6304170;22;46177;-83
2023/03/29 01:16:03;;;;;;;;;7.75;6.25;;;;;;;;6304744;22;45759;-82
2023/03/29 01:18:30;;;;;;;;;13.00;7.00;;;;;;;;6305292;22;45206;-81
2023/03/29 01:21:01;;;;;;;;;7.75;6.00;;;;;;;;6306353;22;45399;-82
2023/03/29 01:23:29;;;;;;;;;11.75;7.75;;;;;;;;6305356;22;46307;-82
2023/03/29 01:25:58;;;;;;;;;12.50;6.75;;;;;;;;6303008;22;46368;-82
2023/03/29 01:28:27;;;;;;;;;10.00;7.00;;;;;;;;6303947;22;45258;-83
2023/03/29 01:30:58;;;;;;;;;7.50;6.75;;;;;;;;6305919;22;45207;-82
2023/03/29 01:33:26;;;;;;;;;7.75;6.00;;;;;;;;6305246;22;45950;-82
2023/03/29 01:35:58;;;;;;;;;8.00;6.50;;;;;;;;6305406;22;45233;-82
2023/03/29 01:38:29;;;;;;;;;12.00;7.00;;;;;;;;6303071;22;45334;-81
2023/03/29 01:40:54;;;;;;;;;10.00;4.50;;;;;;;;6305400;22;45475;-82
2023/03/29 01:43:25;;;;;;;;;9.50;8.00;;;;;;;;6304968;22;45299;-82
2023/03/29 01:45:50;;;;;;;;;8.00;7.00;;;;;;;;6304889;22;45634;-82
2023/03/29 01:48:16;;;;;;;;;11.00;8.00;;;;;;;;6305591;22;45274;-82
2023/03/29 01:50:46;;;;;;;;;7.75;5.00;;;;;;;;6304640;22;45269;-82
2023/03/29 01:53:16;;;;;;;;;12.25;6.25;;;;;;;;6304548;22;45582;-82
2023/03/29 01:55:44;;;;;;;;;8.50;6.50;;;;;;;;6304704;22;45731;-82
2023/03/29 01:58:10;;;;;;;;;5.25;4.25;;;;;;;;6304916;22;45388;-82
2023/03/29 02:00:37;;;;;;;;;7.75;7.00;;;;;;;;6304653;22;45438;-82
2023/03/29 02:03:05;;;;;;;;;6.50;6.00;;;;;;;;6302917;22;46520;-82
2023/03/29 02:05:31;;;;;;;;;6.00;6.00;;;;;;;;6304917;22;45276;-81
2023/03/29 02:07:58;;;;;;;;;10.50;6.50;;;;;;;;6304629;22;45346;-82
2023/03/29 02:10:24;;;;;;;;;8.75;7.25;;;;;;;;6304759;22;45408;-82
2023/03/29 02:12:50;;;;;;;;;12.00;6.75;;;;;;;;6302833;22;47884;-82
2023/03/29 02:15:17;;;;;;;;;8.50;6.00;;;;;;;;6304410;22;45435;-83
2023/03/29 02:17:43;;;;;;;;;6.25;3.75;;;;;;;;6304738;22;45369;-82
2023/03/29 02:20:13;;;;;;;;;6.50;5.50;;;;;;;;6302991;22;45282;-82
2023/03/29 02:22:47;;;;;;;;;6.00;6.00;;;;;;;;6304075;22;47444;-82
2023/03/29 02:25:14;;;;;;;;;7.00;6.00;;;;;;;;6304949;22;45169;-83
2023/03/29 02:27:40;;;;;;;;;8.25;6.00;;;;;;;;6304709;22;45351;-82
2023/03/29 02:30:07;;;;;;;;;9.00;7.00;;;;;;;;6304497;22;45380;-82
2023/03/29 02:32:39;;;;;;;;;7.25;6.00;;;;;;;;6304203;22;46369;-82
2023/03/29 02:35:09;;;;;;;;;7.50;3.75;;;;;;;;6304461;22;45261;-82
2023/03/29 02:37:39;;;;;;;;;3.00;3.00;;;;;;;;6304011;22;45306;-82
2023/03/29 02:40:11;;;;;;;;;10.50;7.00;;;;;;;;6304847;22;45229;-82
2023/03/29 02:42:37;;;;;;;;;14.00;7.00;;;;;;;;6304046;22;47026;-82
2023/03/29 02:45:03;;;;;;;;;9.25;6.25;;;;;;;;6304627;22;45294;-82
2023/03/29 02:47:32;;;;;;;;;8.75;8.00;;;;;;;;6304441;22;45208;-82
2023/03/29 02:49:58;;;;;;;;;6.00;6.00;;;;;;;;6304257;22;45310;-81
2023/03/29 02:52:26;;;;;;;;;4.00;4.00;;;;;;;;6303738;22;46423;-81
2023/03/29 02:54:53;;;;;;;;;8.50;6.00;;;;;;;;6304359;22;45679;-82
2023/03/29 02:57:25;;;;;;;;;6.00;6.00;;;;;;;;6304273;22;45288;-82
2023/03/29 02:59:50;;;;;;;;;8.25;5.50;;;;;;;;6304289;22;45499;-82
2023/03/29 03:02:16;;;;;;;;;9.33;7.00;;;;;;;;6302444;22;48462;-82
2023/03/29 03:04:42;;;;;;;;;8.00;7.25;;;;;;;;6303832;22;45284;-81
2023/03/29 03:07:07;;;;;;;;;8.00;7.00;;;;;;;;6303721;22;45292;-82
2023/03/29 03:09:33;;;;;;;;;11.50;7.00;;;;;;;;6304309;22;45444;-82
2023/03/29 03:11:58;;;;;;;;;8.25;7.00;;;;;;;;6304537;22;45454;-82
2023/03/29 03:14:23;;;;;;;;;11.00;6.00;;;;;;;;6304007;22;45546;-82
2023/03/29 03:16:48;;;;;;;;;6.33;6.33;;;;;;;;6304483;22;45273;-82
2023/03/29 03:19:14;;;;;;;;;6.33;6.33;;;;;;;;6304046;22;45436;-82
2023/03/29 03:21:39;;;;;;;;;6.75;6.00;;;;;;;;6303445;22;46963;-82
2023/03/29 03:24:06;;;;;;;;;14.00;6.67;;;;;;;;6304258;22;45151;-82
2023/03/29 03:26:31;;;;;;;;;9.00;7.00;;;;;;;;6303844;22;45432;-82
2023/03/29 03:28:57;;;;;;;;;4.00;4.00;;;;;;;;6304626;22;45342;-82
2023/03/29 03:31:22;;;;;;;;;4.25;4.25;;;;;;;;6304181;22;45416;-81
2023/03/29 03:33:48;;;;;;;;;7.75;7.00;;;;;;;;6302120;22;45689;-81
2023/03/29 03:36:13;;;;;;;;;6.75;4.00;;;;;;;;6303553;22;45430;-82
2023/03/29 03:38:38;;;;;;;;;7.00;4.67;;;;;;;;6304303;22;45247;-82
2023/03/29 03:41:05;;;;;;;;;6.33;6.33;;;;;;;;6304130;22;45299;-83
2023/03/29 03:43:31;;;;;;;;;8.00;6.00;;;;;;;;6303599;22;45363;-82
2023/03/29 03:45:56;;;;;;;;;7.25;6.50;;;;;;;;6304054;22;45297;-83
2023/03/29 03:48:22;;;;;;;;;8.25;7.00;;;;;;;;6304261;22;45305;-82
2023/03/29 03:50:48;;;;;;;;;4.75;4.25;;;;;;;;6301491;22;46964;-82
2023/03/29 03:53:13;;;;;;;;;6.25;4.00;;;;;;;;6303765;22;45152;-82
2023/03/29 03:55:39;;;;;;;;;7.50;5.50;;;;;;;;6303890;22;45186;-82
2023/03/29 03:58:04;;;;;;;;;8.00;5.33;;;;;;;;6304147;22;45467;-82
2023/03/29 04:00:29;;;;;;;;;6.25;6.25;;;;;;;;6303941;22;46495;-81
2023/03/29 04:02:55;;;;;;;;;4.50;4.50;;;;;;;;6303795;22;45167;-82
2023/03/29 04:05:20;;;;;;;;;10.33;6.33;;;;;;;;6303344;22;45253;-83
2023/03/29 04:07:45;;;;;;;;;8.50;5.00;;;;;;;;6303911;22;45431;-82
2023/03/29 04:10:11;;;;;;;;;4.50;4.50;;;;;;;;6305428;22;45307;-82
2023/03/29 04:12:37;;;;;;;;;8.00;4.25;;;;;;;;6303367;22;45889;-82
2023/03/29 04:15:02;;;;;;;;;7.75;7.00;;;;;;;;6305720;22;45299;-82
2023/03/29 04:17:27;;;;;;;;;6.00;6.00;;;;;;;;6305198;22;45572;-82
2023/03/29 04:19:53;;;;;;;;;10.50;5.00;;;;;;;;6305070;22;45340;-82
2023/03/29 04:22:18;;;;;;;;;4.33;3.67;;;;;;;;6305148;22;45288;-82
2023/03/29 04:24:43;;;;;;;;;6.50;6.00;;;;;;;;6305477;22;45894;-82
2023/03/29 04:27:09;;;;;;;;;3.75;3.75;;;;;;;;6305531;22;45286;-81
2023/03/29 04:29:34;;;;;;;;;3.25;3.25;;;;;;;;6305401;22;46250;-82
2023/03/29 04:32:00;;;;;;;;;11.50;6.00;;;;;;;;6303480;22;45914;-81
2023/03/29 04:34:25;;;;;;;;;5.67;4.33;;;;;;;;6305136;22;45324;-82
2023/03/29 04:36:51;;;;;;;;;8.50;5.00;;;;;;;;6304960;22;45314;-82
2023/03/29 04:39:16;;;;;;;;;5.00;4.00;;;;;;;;6304895;22;45422;-81
2023/03/29 04:41:42;;;;;;;;;7.50;6.25;;;;;;;;6305012;22;45158;-80
2023/03/29 04:44:07;;;;;;;;;6.00;3.00;;;;;;;;6304874;22;45162;-82
2023/03/29 04:46:33;;;;;;;;;5.33;4.00;;;;;;;;6305496;22;45407;-82
2023/03/29 04:48:58;;;;;;;;;8.50;6.00;;;;;;;;6304704;22;45947;-82
2023/03/29 04:51:24;;;;;;;;;8.75;6.50;;;;;;;;6303454;22;45542;-82
2023/03/29 04:53:49;;;;;;;;;4.00;3.00;;;;;;;;6303536;22;45365;-81
2023/03/29 04:56:15;;;;;;;;;5.33;3.00;;;;;;;;6305462;22;45165;-81
2023/03/29 04:58:41;;;;;;;;;8.50;4.50;;;;;;;;6304649;22;46877;-82
2023/03/29 05:01:06;;;;;;;;;6.00;4.50;;;;;;;;6305471;22;45323;-82
2023/03/29 05:03:31;;;;;;;;;9.25;6.00;;;;;;;;6304697;22;45226;-82
2023/03/29 05:06:05;;;;;;;;;5.33;5.33;;;;;;;;6303413;22;45402;-83
2023/03/29 05:08:31;;;;;;;;;4.75;3.50;;;;;;;;6304741;22;45347;-82
2023/03/29 05:10:56;;;;;;;;;3.00;3.00;;;;;;;;6305252;22;45344;-83
2023/03/29 05:13:21;;;;;;;;;6.50;3.00;;;;;;;;6305091;22;45391;-82
2023/03/29 05:15:47;;;;;;;;;6.75;6.00;;;;;;;;6304840;22;45347;-82
2023/03/29 05:18:12;;;;;;;;;4.67;2.67;;;;;;;;6304543;22;45966;-82
2023/03/29 05:20:39;;;;;;;;;4.00;2.67;;;;;;;;6304930;22;45371;-83
2023/03/29 05:23:04;;;;;;;;;3.00;2.25;;;;;;;;6305366;22;45349;-82
2023/03/29 05:25:29;;;;;;;;;2.00;2.00;;;;;;;;6305224;22;45252;-83
2023/03/29 05:27:54;;;;;;;;;3.00;3.00;;;;;;;;6303142;22;47228;-82
2023/03/29 05:30:19;;;;;;;;;1.00;1.00;;;;;;;;6305362;22;45319;-83
2023/03/29 05:32:45;;;;;;;;;3.00;2.00;;;;;;;;6304622;22;45445;-83
2023/03/29 05:35:11;;;;;;;;;6.00;2.50;;;;;;;;6304738;22;45527;-83
2023/03/29 05:37:37;;;;;;;;;6.50;2.00;;;;;;;;6304498;22;46287;-83
2023/03/29 05:40:05;;;;;;;;;2.25;2.25;;;;;;;;6303280;22;45357;-83
2023/03/29 05:42:31;;;;;;;;;2.75;2.75;;;;;;;;6304948;22;45225;-83
2023/03/29 05:44:56;;;;;;;;;2.00;2.00;;;;;;;;6304878;22;45241;-83
2023/03/29 05:47:21;;;;;;;;;4.00;3.00;;;;;;;;6304714;22;45299;-81
2023/03/29 05:49:46;;;;;;;;;6.00;2.00;;;;;;;;6304883;22;45518;-83
2023/03/29 05:52:13;;;;;;;;;3.00;3.00;;;;;;;;6305530;22;45486;-86
2023/03/29 05:54:38;;;;;;;;;3.00;3.00;;;;;;;;6305377;22;45289;-87
2023/03/29 05:57:03;;;;;;;;;8.50;3.00;;;;;;;;6305450;22;45298;-85
2023/03/29 05:59:29;;;;;;;;;3.00;2.00;;;;;;;;6303084;22;45304;-87
2023/03/29 06:01:59;;;;;;;;;6.25;2.25;;;;;;;;6305382;22;45257;-90
2023/03/29 06:04:25;;;;;;;;;3.00;3.00;;;;;;;;6304602;22;45461;-92
2023/03/29 06:06:51;;;;;;;;;3.75;2.25;;;;;;;;6305200;22;46549;-90
2023/03/29 06:09:17;;;;;;;;;4.00;2.00;;;;;;;;6306216;22;45866;-87
2023/03/29 06:11:43;;;;;;;;;4.00;2.00;;;;;;;;6306467;22;45351;-92
2023/03/29 06:14:09;;;;;;;;;3.00;2.00;;;;;;;;6305156;22;45199;-90
2023/03/29 06:16:35;;;;;;;;;2.25;2.00;;;;;;;;6304996;22;48150;-90
2023/03/29 06:19:02;;;;;;;;;3.00;2.00;;;;;;;;6306376;22;45620;-89
2023/03/29 06:21:30;;;;;;;;;3.25;1.75;;;;;;;;6304803;22;45270;-89
2023/03/29 06:23:55;;;;;;;;;7.50;4.00;;;;;;;;6306074;22;45523;-87
2023/03/29 06:26:20;;;;;;;;;3.00;3.00;;;;;;;;6305589;22;46163;-87
2023/03/29 06:28:48;;;;;;;;;6.67;3.00;;;;;;;;6305169;22;45233;-88
2023/03/29 06:31:13;;;;;;;;;5.25;3.00;;;;;;;;6304959;22;45266;-87
2023/03/29 06:33:40;;;;;;;;;3.67;3.00;;;;;;;;6305705;22;45253;-87
2023/03/29 06:36:06;;;;;;;;;1.50;1.00;;;;;;;;6304956;22;46281;-88
2023/03/29 06:38:36;;;;;;;;;4.50;3.00;;;;;;;;6304705;22;45416;-88
2023/03/29 06:41:09;;;;;;;;;8.00;4.00;;;;;;;;6305705;22;45259;-87
2023/03/29 06:43:35;;;;;;;;;3.00;2.50;;;;;;;;6303594;22;45436;-87
2023/03/29 06:46:10;;;;;;;;;5.75;3.00;;;;;;;;6305498;22;46514;-87
2023/03/29 06:48:35;;;;;;;;;2.00;2.00;;;;;;;;6304129;22;45586;-88
2023/03/29 06:51:03;;;;;;;;;2.00;2.00;;;;;;;;6304496;22;45189;-87
2023/03/29 06:53:28;;;;;;;;;6.00;3.25;;;;;;;;6305381;22;45265;-87
2023/03/29 06:56:16;;;;;;;;;4.00;1.00;;;;;;;;6305050;22;45512;-87
2023/03/29 06:58:45;;;;;;;;;4.00;4.00;;;;;;;;6305101;22;45645;-87
2023/03/29 07:01:13;;;;;;;;;6.25;3.00;;;;;;;;6305456;22;45221;-87
2023/03/29 07:03:40;;;;;;;;;6.00;3.00;;;;;;;;6303403;22;45489;-86
2023/03/29 07:06:08;;;;;;;;;5.25;3.50;;;;;;;;6305008;22;45743;-88
2023/03/29 07:08:36;;;;;;;;;4.75;4.00;;;;;;;;6306133;22;45596;-88
2023/03/29 07:11:02;;;;;;;;;4.00;3.00;;;;;;;;6304136;22;45267;-88
2023/03/29 07:13:29;;;;;;;;;6.25;2.00;;;;;;;;6305570;22;45372;-88
2023/03/29 07:15:55;;;;;;;;;5.25;3.00;;;;;;;;6305767;22;45365;-89
2023/03/29 07:18:20;;;;;;;;;4.25;2.75;;;;;;;;6303572;22;45469;-88
2023/03/29 07:20:48;;;;;;;;;4.50;3.50;;;;;;;;6305831;22;45265;-88
2023/03/29 07:23:13;;;;;;;;;4.50;3.00;;;;;;;;6307394;22;45379;-89
2023/03/29 07:25:39;;;;;;;;;7.00;3.00;;;;;;;;6310287;22;46644;-88
2023/03/29 07:28:07;;;;;;;;;7.50;3.25;;;;;;;;6307347;22;45797;-89
2023/03/29 07:30:33;;;;;;;;;5.50;3.50;;;;;;;;6309855;22;45291;-88
2023/03/29 07:32:59;;;;;;;;;7.25;3.50;;;;;;;;6312000;22;45437;-88
2023/03/29 07:35:25;;;;;;;;;4.00;4.00;;;;;;;;6308690;22;46215;-89
2023/03/29 07:37:51;;;;;;;;;8.00;4.50;;;;;;;;6311552;22;45249;-87
2023/03/29 07:40:22;;;;;;;;;3.00;3.00;;;;;;;;6319444;22;45242;-89
2023/03/29 07:42:48;;;;;;;;;3.50;3.00;;;;;;;;6318329;22;45387;-88
2023/03/29 07:45:15;;;;;;;;;8.00;4.75;;;;;;;;6315932;22;47056;-88
2023/03/29 07:47:43;;;;;;;;;3.25;3.00;;;;;;;;6324861;22;45292;-88
2023/03/29 07:50:10;;;;;;;;;4.00;4.00;;;;;;;;6323592;22;45087;-88
2023/03/29 07:52:38;;;;;;;;;5.75;3.00;;;;;;;;6325310;22;45129;-89
2023/03/29 07:55:07;;;;;;;;;3.25;2.25;;;;;;;;6328713;22;45192;-88
2023/03/29 07:57:33;;;;;;;;;6.00;2.50;;;;;;;;6325002;22;45175;-90
2023/03/29 07:59:58;;;;;;;;;4.25;3.00;;;;;;;;6328002;22;45250;-89
2023/03/29 08:02:24;;;;;;;;;3.50;1.75;;;;;;;;6326126;22;45201;-89
2023/03/29 08:04:49;;;;;;;;;2.00;2.00;;;;;;;;6308938;22;46037;-88
2023/03/29 08:07:17;;;;;;;;;5.67;2.33;;;;;;;;6306930;22;45183;-89
2023/03/29 08:09:43;;;;;;;;;5.00;5.00;;;;;;;;6307582;22;45356;-89
2023/03/29 08:12:09;;;;;;;;;5.00;3.25;;;;;;;;6307372;22;45348;-89
2023/03/29 08:14:35;;;;;;;;;6.25;3.75;;;;;;;;6307307;22;46295;-89
2023/03/29 08:17:00;;;;;;;;;3.75;2.50;;;;;;;;6306629;22;45439;-89
2023/03/29 08:19:25;;;;;;;;;3.67;3.33;;;;;;;;6305386;22;45232;-89
2023/03/29 08:21:52;;;;;;;;;3.00;3.00;;;;;;;;6306109;22;45237;-88
2023/03/29 08:24:29;;;;;;;;;4.00;3.00;;;;;;;;6306124;22;45470;-88
2023/03/29 08:27:02;;;;;;;;;2.50;2.50;;;;;;;;6305630;22;45221;-86
2023/03/29 08:29:32;;;;;;;;;4.75;2.50;;;;;;;;6305990;22;45231;-87
2023/03/29 08:32:00;;;;;;;;;3.00;3.00;;;;;;;;6305630;22;45489;-88
2023/03/29 08:34:30;;;;;;;;;3.75;2.00;;;;;;;;6305677;22;45276;-88
2023/03/29 08:36:55;;;;;;;;;5.00;2.00;;;;;;;;6305881;22;45219;-88
2023/03/29 08:39:23;;;;;;;;;7.25;3.50;;;;;;;;6305613;22;45250;-87
2023/03/29 08:42:07;;;;;;;;;;;;;;;;;;;;;
2023/03/29 08:44:33;;;;;;;;;3.00;2.00;;;;;;;;6301258;22;76292;-87
2023/03/29 08:47:05;;;;;;;;;3.50;2.00;;;;;;;;6305660;22;45238;-87
2023/03/29 08:49:31;;;;;;;;;6.25;3.25;;;;;;;;6305613;22;45352;-87
2023/03/29 08:51:59;;;;;;;;;3.25;3.00;;;;;;;;6306208;22;45421;-87
2023/03/29 08:54:26;;;;;;;;;3.75;3.50;;;;;;;;6303211;22;48388;-87
2023/03/29 08:56:55;;;;;;;;;3.75;2.50;;;;;;;;6305093;22;45261;-87
2023/03/29 08:59:27;;;;;;;;;2.00;2.00;;;;;;;;6304285;22;45245;-87
2023/03/29 09:01:54;;;;;;;;;3.00;3.00;;;;;;;;6305710;22;45248;-87
2023/03/29 09:04:23;;;;;;;;;4.00;2.25;;;;;;;;6303843;22;46438;-88
2023/03/29 09:06:48;;;;;;;;;6.00;3.00;;;;;;;;6304854;22;45687;-88
2023/03/29 09:09:16;;;;;;;;;4.25;2.00;;;;;;;;6303639;22;45302;-87
2023/03/29 09:12:02;;;;;;;;;2.25;2.00;;;;;;;;6305381;22;45301;-87
2023/03/29 09:14:30;;;;;;;;;4.00;3.00;;;;;;;;6305276;22;46471;-88
2023/03/29 09:17:21;;;;;;;;;4.00;3.00;;;;;;;;6303518;22;45513;-85
2023/03/29 09:19:49;;;;;;;;;2.50;2.50;;;;;;;;6303531;22;45419;-87
2023/03/29 09:22:27;;;;;;;;;5.00;1.00;;;;;;;;6303956;22;45378;-88
2023/03/29 09:24:59;;;;;;;;;3.00;1.50;;;;;;;;6304925;22;45635;-88
2023/03/29 09:27:33;;;;;;;;;4.00;2.75;;;;;;;;6305304;22;45539;-87
2023/03/29 09:30:08;;;;;;;;;4.00;4.00;;;;;;;;6304056;22;45255;-87
2023/03/29 09:32:51;;;;;;;;;2.00;2.00;;;;;;;;6305343;22;45279;-88
2023/03/29 09:35:31;;;;;;;;;4.00;2.25;;;;;;;;6305232;22;45675;-87
2023/03/29 09:37:56;;;;;;;;;3.75;1.75;;;;;;;;6303556;22;45589;-88
2023/03/29 09:40:27;;;;;;;;;3.25;3.00;;;;;;;;6304219;22;45329;-87
2023/03/29 09:42:53;;;;;;;;;2.75;1.75;;;;;;;;6306076;22;45276;-88
2023/03/29 09:45:24;;;;;;;;;3.00;2.00;;;;;;;;6303441;22;47015;-87
2023/03/29 09:47:51;;;;;;;;;2.00;1.75;;;;;;;;6305209;22;45543;-87
2023/03/29 09:50:21;;;;;;;;;2.25;2.25;;;;;;;;6305465;22;45248;-88
2023/03/29 09:52:48;;;;;;;;;2.00;2.00;;;;;;;;6304719;22;45305;-86
2023/03/29 09:55:20;;;;;;;;;2.00;2.00;;;;;;;;6305194;22;46276;-88
2023/03/29 09:57:55;;;;;;;;;;;;;;;;;;;;;
2023/03/29 10:00:23;;;;;;;;;6.25;2.00;;;;;;;;6301316;22;69682;-88
2023/03/29 10:02:54;;;;;;;;;3.00;1.00;;;;;;;;6305153;22;45234;-88
2023/03/29 10:05:20;;;;;;;;;4.50;2.00;;;;;;;;6304555;22;45635;-85
2023/03/29 10:07:50;;;;;;;;;2.25;1.75;;;;;;;;6304250;22;45225;-88
2023/03/29 10:10:31;;;;;;;;;;;;;;;;;;;;;
2023/03/29 10:13:02;;;;;;;;;2.00;2.00;;;;;;;;6299107;22;69752;-89
2023/03/29 10:15:28;;;;;;;;;2.25;1.00;;;;;;;;6304097;22;47084;-89
2023/03/29 10:18:02;;;;;;;;;1.50;1.00;;;;;;;;6303775;22;45564;-89
2023/03/29 10:20:27;;;;;;;;;2.00;2.00;;;;;;;;6305605;22;45469;-88
2023/03/29 10:22:55;;;;;;;;;2.00;2.00;;;;;;;;6304913;22;45257;-88
2023/03/29 10:25:24;;;;;;;;;2.25;2.25;;;;;;;;6304477;22;45671;-88
2023/03/29 10:27:49;;;;;;;;;3.75;2.00;;;;;;;;6305687;22;45265;-88
2023/03/29 10:30:20;;;;;;;;;2.25;2.00;;;;;;;;6303779;22;45349;-88
2023/03/29 10:32:45;;;;;;;;;2.50;2.50;;;;;;;;6305261;22;45099;-88
2023/03/29 10:35:20;;;;;;;;;3.50;1.00;;;;;;;;6304426;22;46027;-88
2023/03/29 10:37:48;;;;;;;;;3.00;1.75;;;;;;;;6305028;22;45209;-88
2023/03/29 10:40:40;;;;;;;;;4.50;2.00;;;;;;;;6305451;22;45323;-87
2023/03/29 10:43:23;;;;;;;;;2.75;1.25;;;;;;;;6300166;22;45451;-88
2023/03/29 10:45:49;;;;;;;;;3.00;3.00;;;;;;;;6303343;22;48264;-88
2023/03/29 10:48:15;;;;;;;;;5.00;2.00;;;;;;;;6305095;22;45581;-88
2023/03/29 10:50:41;;;;;;;;;1.50;1.50;;;;;;;;6304564;22;45389;-89
2023/03/29 10:53:18;;;;;;;;;2.00;2.00;;;;;;;;6303912;22;45373;-89
2023/03/29 10:56:06;;;;;;;;;3.75;0.00;;;;;;;;6304850;22;46497;-89
2023/03/29 10:58:40;;;;;;;;;2.00;1.25;;;;;;;;6305285;22;45518;-88
2023/03/29 11:01:11;;;;;;;;;3.25;2.00;;;;;;;;6303783;22;45419;-87
2023/03/29 11:03:36;;;;;;;;;1.00;1.00;;;;;;;;6304925;22;45455;-88
2023/03/29 11:06:01;;;;;;;;;3.33;1.33;;;;;;;;6303107;22;45571;-94
2023/03/29 11:08:35;;;;;;;;;3.00;1.75;;;;;;;;6305096;22;45336;-90
2023/03/29 11:11:19;;;;;;;;;1.75;1.50;;;;;;;;6302605;22;45312;-90
2023/03/29 11:13:45;;;;;;;;;1.50;1.50;;;;;;;;6302594;22;45176;-87
2023/03/29 11:16:16;;;;;;;;;4.75;1.25;;;;;;;;6302926;22;45507;-87
2023/03/29 11:18:57;;;;;;;;;4.00;1.00;;;;;;;;6302786;22;45625;-87
2023/03/29 11:21:25;;;;;;;;;2.00;1.00;;;;;;;;6303582;22;45328;-86
2023/03/29 11:24:10;;;;;;;;;1.00;1.00;;;;;;;;6304646;22;45348;-89
2023/03/29 11:26:43;;;;;;;;;2.00;1.00;;;;;;;;6305619;22;46213;-89
2023/03/29 11:29:14;;;;;;;;;1.00;1.00;;;;;;;;6307111;22;45465;-91
2023/03/29 11:31:46;;;;;;;;;3.75;1.00;;;;;;;;6305208;22;45243;-93
2023/03/29 11:34:25;;;;;;;;;2.25;1.00;;;;;;;;6306966;22;45192;-92
2023/03/29 11:36:53;;;;;;;;;3.00;1.00;;;;;;;;6306535;22;46900;-90
2023/03/29 11:39:28;;;;;;;;;1.00;0.00;;;;;;;;6306109;22;45793;-92
2023/03/29 11:41:56;;;;;;;;;0.75;0.50;;;;;;;;6306436;22;45311;-88
2023/03/29 11:44:23;;;;;;;;;2.00;1.00;;;;;;;;6305922;22;45721;-89
2023/03/29 11:46:54;;;;;;;;;1.50;1.00;;;;;;;;6303190;22;47025;-87
2023/03/29 11:49:20;;;;;;;;;0.25;0.25;;;;;;;;6303651;22;45987;-89
2023/03/29 11:52:05;;;;;;;;;0.50;0.00;;;;;;;;6306861;22;45713;-94
2023/03/29 11:54:34;;;;;;;;;2.00;1.00;;;;;;;;6305662;22;45367;-91
2023/03/29 11:57:18;;;;;;;;;1.00;1.00;;;;;;;;6304737;22;47705;-90
2023/03/29 11:59:50;;;;;;;;;2.00;2.00;;;;;;;;6304679;22;45490;-92
2023/03/29 12:02:34;;;;;;;;;1.25;1.25;;;;;;;;6307826;22;45280;-93
2023/03/29 12:05:11;;;;;;;;;1.50;1.00;;;;;;;;6306088;22;45301;-94
2023/03/29 12:07:47;;;;;;;;;2.25;0.75;;;;;;;;6307290;22;45289;-92
2023/03/29 12:10:28;;;;;;;;;0.25;0.25;;;;;;;;6304455;22;45420;-90
2023/03/29 12:12:57;;;;;;;;;1.00;1.00;;;;;;;;6305770;22;45364;-92
2023/03/29 12:15:23;;;;;;;;;1.00;1.00;;;;;;;;6306302;22;45269;-90
2023/03/29 12:17:54;;;;;;;;;4.00;1.00;;;;;;;;6303939;22;46395;-89
2023/03/29 12:20:25;;;;;;;;;1.50;1.00;;;;;;;;6303268;22;45730;-89
2023/03/29 12:22:51;;;;;;;;;0.75;0.75;;;;;;;;6306148;22;45209;-91
2023/03/29 12:25:20;;;;;;;;;2.75;1.00;;;;;;;;6306292;22;45248;-90
2023/03/29 12:28:03;;;;;;;;;0.00;0.00;;;;;;;;6306464;22;46340;-88
2023/03/29 12:30:41;;;;;;;;;0.75;0.75;;;;;;;;6306282;22;45329;-88
2023/03/29 12:33:14;;;;;;;;;3.25;2.00;;;;;;;;6305141;22;45249;-89
2023/03/29 12:35:54;;;;;;;;;0.75;0.50;;;;;;;;6304181;22;45444;-88
2023/03/29 12:38:24;;;;;;;;;0.00;0.00;;;;;;;;6304412;22;48136;-89
2023/03/29 12:40:57;;;;;;;;;1.75;0.00;;;;;;;;6305318;22;45801;-89
2023/03/29 12:43:29;;;;;;;;;1.75;0.00;;;;;;;;6304742;22;45596;-89
2023/03/29 12:45:56;;;;;;;;;0.00;0.00;;;;;;;;6304246;22;45260;-89
2023/03/29 12:48:24;;;;;;;;;3.00;0.50;;;;;;;;6306498;22;46952;-90
2023/03/29 12:50:55;;;;;;;;;0.00;0.00;;;;;;;;6306096;22;45445;-89
2023/03/29 12:53:25;;;;;;;;;1.25;0.75;;;;;;;;6306488;22;45300;-91
2023/03/29 12:56:00;;;;;;;;;0.75;0.75;;;;;;;;6306359;22;45421;-90
2023/03/29 12:58:37;;;;;;;;;0.00;0.00;;;;;;;;6306361;22;46282;-90
2023/03/29 13:01:06;;;;;;;;;1.75;0.25;;;;;;;;6305832;22;45463;-90
2023/03/29 13:03:34;;;;;;;;;1.75;0.00;;;;;;;;6306292;22;45428;-87
2023/03/29 13:06:01;;;;;;;;;1.75;0.75;;;;;;;;6305592;22;45351;-88
2023/03/29 13:08:38;;;;;;;;;0.25;0.25;;;;;;;;6306228;22;47040;-90
2023/03/29 13:11:04;;;;;;;;;2.75;0.25;;;;;;;;6306199;22;45230;-88
2023/03/29 13:13:32;;;;;;;;;0.00;0.00;;;;;;;;6304485;22;45369;-89
2023/03/29 13:16:13;;;;;;;;;0.00;0.00;;;;;;;;6304300;22;45257;-88
2023/03/29 13:18:45;;;;;;;;;1.50;1.00;;;;;;;;6304271;22;47210;-90
2023/03/29 13:21:22;;;;;;;;;1.00;1.00;;;;;;;;6305838;22;46085;-90
2023/03/29 13:23:47;;;;;;;;;1.00;1.00;;;;;;;;6306328;22;45223;-88
2023/03/29 13:26:31;;;;;;;;;1.00;1.00;;;;;;;;6304807;22;45508;-89
2023/03/29 13:28:59;;;;;;;;;0.75;0.75;;;;;;;;6305172;22;46156;-88
2023/03/29 13:31:31;;;;;;;;;1.00;1.00;;;;;;;;6303315;22;45325;-89
2023/03/29 13:34:02;;;;;;;;;0.25;0.25;;;;;;;;6303944;22;45359;-87
2023/03/29 13:36:46;;;;;;;;;1.00;1.00;;;;;;;;6304226;22;45596;-89
2023/03/29 13:39:18;;;;;;;;;3.00;1.00;;;;;;;;6303810;22;47223;-90
2023/03/29 13:41:49;;;;;;;;;0.25;0.25;;;;;;;;6304427;22;45521;-89
2023/03/29 13:44:25;;;;;;;;;1.00;1.00;;;;;;;;6303913;22;45470;-88
2023/03/29 13:47:11;;;;;;;;;0.75;0.75;;;;;;;;6304766;22;45345;-87
2023/03/29 13:52:15;;;;;;;;;1.00;0.00;;;;;;;;6336894;22;45233;-87
2023/03/29 13:54:56;;;;;;;;;1.00;1.00;;;;;;;;6338098;22;45312;-89
2023/03/29 13:57:24;;;;;;;;;3.00;1.00;;;;;;;;6338059;22;45175;-87
2023/03/29 13:59:53;;;;;;;;;1.00;1.00;;;;;;;;6337485;22;46406;-90
2023/03/29 14:02:24;;;;;;;;;2.50;1.00;;;;;;;;6338876;22;45392;-91
2023/03/29 14:04:50;;;;;;;;;2.50;1.00;;;;;;;;6344347;22;45327;-90
2023/03/29 14:07:18;;;;;;;;;2.00;1.00;;;;;;;;6358612;22;44751;-89
2023/03/29 14:09:44;;;;;;;;;1.00;0.75;;;;;;;;6362928;22;45356;-91
2023/03/29 14:12:12;;;;;;;;;1.00;1.00;;;;;;;;6358942;22;44984;-88
2023/03/29 14:14:40;;;;;;;;;2.00;1.00;;;;;;;;6345037;22;45221;-91
2023/03/29 14:17:06;;;;;;;;;2.25;1.00;;;;;;;;6340028;22;45561;-87
2023/03/29 14:19:36;;;;;;;;;1.00;1.00;;;;;;;;6336225;22;48167;-90
2023/03/29 14:22:06;;;;;;;;;1.50;1.50;;;;;;;;6338578;22;45174;-88
2023/03/29 14:24:37;;;;;;;;;4.00;1.00;;;;;;;;6336070;22;45365;-90
2023/03/29 14:27:03;;;;;;;;;2.50;1.00;;;;;;;;6335659;22;45305;-87
2023/03/29 14:29:29;;;;;;;;;3.00;1.50;;;;;;;;6337397;22;45639;-90
2023/03/29 14:31:55;;;;;;;;;1.75;1.00;;;;;;;;6335939;22;45405;-89
2023/03/29 14:34:21;;;;;;;;;1.00;1.00;;;;;;;;6337913;22;45113;-90
2023/03/29 14:36:47;;;;;;;;;2.00;2.00;;;;;;;;6336751;22;45418;-91
2023/03/29 14:39:17;;;;;;;;;1.25;1.00;;;;;;;;6336007;22;47140;-90
2023/03/29 14:41:51;;;;;;;;;1.00;1.00;;;;;;;;6338518;22;45606;-89
2023/03/29 14:44:18;;;;;;;;;0.75;0.75;;;;;;;;6338455;22;45367;-91
2023/03/29 14:46:44;;;;;;;;;0.75;0.75;;;;;;;;6339130;22;45148;-86
2023/03/29 14:49:13;;;;;;;;;0.75;0.75;;;;;;;;6337339;22;47289;-90
2023/03/29 14:51:39;;;;;;;;;2.75;1.75;;;;;;;;6336268;22;45613;-90
2023/03/29 14:54:05;;;;;;;;;2.50;1.75;;;;;;;;6337448;22;45362;-90
2023/03/29 14:56:31;;;;;;;;;0.50;0.50;;;;;;;;6334167;22;45880;-90
2023/03/29 14:58:58;;;;;;;;;1.75;1.75;;;;;;;;6334871;22;47238;-89